Time;durP1;ratioP1;P1;durP2;ratioP2;P2;SDS_P1;SDS_P2;PMS_P1;PMS_P2;Temp;Humidity;BMP_temperature;BMP_pressure;BME280_temperature;BME280_humidity;BME280_pressure;Samples;Min_cycle;Max_cycle;Signal;HPM_P1;HPM_P2
2022/03/30 00:01:30;;;;;;;50.83;28.13;;;;;;;;;;5003071;28;20119;-71
2022/03/30 00:03:56;;;;;;;59.38;29.60;;;;;;;;;;4995230;28;20026;-72
2022/03/30 00:06:22;;;;;;;56.42;27.35;;;;;;;;;;4996153;28;20477;-70
2022/03/30 00:08:49;;;;;;;51.13;26.85;;;;;;;;;;4996197;28;20404;-71
2022/03/30 00:11:15;;;;;;;53.47;27.90;;;;;;;;;;5004460;28;20104;-70
2022/03/30 00:13:41;;;;;;;50.72;26.77;;;;;;;;;;5012804;28;20038;-71
2022/03/30 00:16:08;;;;;;;51.78;26.33;;;;;;;;;;5004644;28;20427;-69
2022/03/30 00:18:34;;;;;;;51.15;27.48;;;;;;;;;;5001482;28;20030;-71
2022/03/30 00:21:01;;;;;;;50.72;26.90;;;;;;;;;;5012988;28;20037;-70
2022/03/30 00:23:27;;;;;;;56.90;28.45;;;;;;;;;;5000429;28;20127;-70
2022/03/30 00:25:53;;;;;;;52.35;27.52;;;;;;;;;;5001452;28;20105;-72
2022/03/30 00:28:19;;;;;;;56.17;26.08;;;;;;;;;;4999898;28;20037;-70
2022/03/30 00:30:45;;;;;;;55.60;26.08;;;;;;;;;;5003479;28;20046;-72
2022/03/30 00:33:11;;;;;;;49.22;26.67;;;;;;;;;;5007627;28;20033;-71
2022/03/30 00:35:37;;;;;;;53.50;26.67;;;;;;;;;;5004678;28;20049;-71
2022/03/30 00:38:03;;;;;;;59.60;28.17;;;;;;;;;;5000917;28;20041;-71
2022/03/30 00:40:29;;;;;;;60.30;28.55;;;;;;;;;;5002215;28;20057;-72
2022/03/30 00:42:56;;;;;;;55.65;28.58;;;;;;;;;;5001478;28;20551;-70
2022/03/30 00:45:23;;;;;;;58.03;28.48;;;;;;;;;;5008617;28;20112;-72
2022/03/30 00:47:49;;;;;;;57.50;29.77;;;;;;;;;;5003574;28;20302;-71
2022/03/30 00:50:17;;;;;;;64.80;29.17;;;;;;;;;;5009652;28;20515;-70
2022/03/30 00:52:50;;;;;;;54.92;28.48;;;;;;;;;;5000943;28;20065;-70
2022/03/30 00:55:17;;;;;;;56.58;28.15;;;;;;;;;;5001404;28;20029;-72
2022/03/30 00:57:43;;;;;;;51.58;26.70;;;;;;;;;;5001949;28;20361;-70
2022/03/30 01:00:12;;;;;;;54.28;26.35;;;;;;;;;;5007867;28;20034;-72
2022/03/30 01:02:39;;;;;;;53.88;26.60;;;;;;;;;;5006823;28;20653;-71
2022/03/30 01:05:06;;;;;;;50.05;26.58;;;;;;;;;;5001380;28;20038;-70
2022/03/30 01:07:32;;;;;;;59.60;27.70;;;;;;;;;;5003909;28;20026;-70
2022/03/30 01:09:58;;;;;;;54.40;26.85;;;;;;;;;;5000289;28;20036;-71
2022/03/30 01:12:25;;;;;;;54.63;26.48;;;;;;;;;;5006664;28;20042;-72
2022/03/30 01:14:52;;;;;;;53.20;28.00;;;;;;;;;;5004053;28;20050;-72
2022/03/30 01:17:18;;;;;;;58.33;27.55;;;;;;;;;;5006082;28;20025;-71
2022/03/30 01:19:45;;;;;;;59.42;28.05;;;;;;;;;;5008519;28;20110;-72
2022/03/30 01:22:11;;;;;;;55.38;26.75;;;;;;;;;;5007949;28;20030;-70
2022/03/30 01:24:37;;;;;;;54.72;26.77;;;;;;;;;;5009556;28;20029;-71
2022/03/30 01:27:03;;;;;;;52.60;26.80;;;;;;;;;;4999009;28;20045;-72
2022/03/30 01:32:27;;;;;;;54.40;26.23;;;;;;;;;;5004079;28;20215;-71
2022/03/30 01:34:53;;;;;;;51.15;25.83;;;;;;;;;;5004477;28;20027;-70
2022/03/30 01:37:20;;;;;;;50.88;26.75;;;;;;;;;;5007877;28;21094;-71
2022/03/30 01:39:46;;;;;;;52.10;26.10;;;;;;;;;;4996315;28;20054;-70
2022/03/30 01:42:12;;;;;;;49.47;27.52;;;;;;;;;;5001577;28;20026;-72
2022/03/30 01:44:39;;;;;;;52.38;28.02;;;;;;;;;;5002818;28;20022;-72
2022/03/30 01:47:05;;;;;;;53.08;26.10;;;;;;;;;;5003842;28;20018;-71
2022/03/30 01:49:31;;;;;;;54.05;28.20;;;;;;;;;;5006717;28;21286;-69
2022/03/30 01:51:59;;;;;;;50.08;26.10;;;;;;;;;;5005988;28;20038;-72
2022/03/30 01:54:26;;;;;;;48.17;25.73;;;;;;;;;;5001404;28;20080;-72
2022/03/30 01:56:53;;;;;;;54.45;27.33;;;;;;;;;;5003429;28;20045;-70
2022/03/30 01:59:19;;;;;;;51.83;27.33;;;;;;;;;;5006778;28;20491;-69
2022/03/30 02:01:46;;;;;;;53.10;27.00;;;;;;;;;;5003029;28;20033;-70
2022/03/30 02:04:14;;;;;;;55.78;28.83;;;;;;;;;;5007042;28;20030;-71
2022/03/30 02:06:40;;;;;;;53.08;27.80;;;;;;;;;;5003766;28;20026;-71
2022/03/30 02:09:06;;;;;;;50.00;27.38;;;;;;;;;;5005173;28;20465;-70
2022/03/30 02:11:33;;;;;;;59.10;28.60;;;;;;;;;;5006656;28;20046;-71
2022/03/30 02:14:00;;;;;;;59.58;29.83;;;;;;;;;;5007241;28;20097;-72
2022/03/30 02:16:26;;;;;;;61.83;28.63;;;;;;;;;;5008087;28;20050;-70
2022/03/30 02:18:52;;;;;;;60.30;29.73;;;;;;;;;;5006775;28;20086;-71
2022/03/30 02:21:19;;;;;;;59.95;29.80;;;;;;;;;;4999180;28;20038;-70
2022/03/30 02:23:46;;;;;;;57.90;28.30;;;;;;;;;;5002443;28;20025;-71
2022/03/30 02:26:13;;;;;;;54.70;28.75;;;;;;;;;;5008387;28;20024;-71
2022/03/30 02:28:39;;;;;;;65.18;31.25;;;;;;;;;;5006753;28;20491;-71
2022/03/30 02:31:06;;;;;;;63.13;30.45;;;;;;;;;;5010349;28;20125;-71
2022/03/30 02:33:32;;;;;;;62.22;30.25;;;;;;;;;;5006258;28;20033;-70
2022/03/30 02:35:58;;;;;;;60.50;29.42;;;;;;;;;;5001402;28;20882;-71
2022/03/30 02:38:24;;;;;;;56.55;29.50;;;;;;;;;;5010521;28;20521;-71
2022/03/30 02:40:50;;;;;;;59.22;31.40;;;;;;;;;;5002383;28;20053;-71
2022/03/30 02:43:19;;;;;;;63.17;31.40;;;;;;;;;;5005420;28;20030;-70
2022/03/30 02:45:46;;;;;;;60.60;30.27;;;;;;;;;;5004188;28;20045;-70
2022/03/30 02:48:18;;;;;;;56.35;28.95;;;;;;;;;;5012773;28;20436;-71
2022/03/30 02:50:45;;;;;;;63.08;31.33;;;;;;;;;;5007219;28;20715;-71
2022/03/30 02:53:11;;;;;;;58.00;27.30;;;;;;;;;;5004529;28;20037;-71
2022/03/30 02:55:37;;;;;;;56.58;29.67;;;;;;;;;;5006961;28;20049;-70
2022/03/30 02:58:08;;;;;;;64.40;30.20;;;;;;;;;;5000076;28;20030;-70
2022/03/30 03:00:35;;;;;;;59.95;28.73;;;;;;;;;;5011803;28;20028;-70
2022/03/30 03:03:02;;;;;;;51.55;26.70;;;;;;;;;;5009160;28;20030;-71
2022/03/30 03:05:32;;;;;;;54.70;29.98;;;;;;;;;;5005957;28;20119;-71
2022/03/30 03:08:07;;;;;;;57.95;28.75;;;;;;;;;;5005045;28;20033;-72
2022/03/30 03:10:34;;;;;;;60.53;29.30;;;;;;;;;;5008703;28;20808;-70
2022/03/30 03:13:03;;;;;;;56.05;28.30;;;;;;;;;;5007402;28;20057;-71
2022/03/30 03:15:30;;;;;;;55.60;27.20;;;;;;;;;;5011329;28;20505;-71
2022/03/30 03:17:57;;;;;;;56.17;27.80;;;;;;;;;;5008164;28;20034;-71
2022/03/30 03:20:24;;;;;;;56.40;29.75;;;;;;;;;;5001445;28;20037;-71
2022/03/30 03:22:50;;;;;;;52.33;27.42;;;;;;;;;;5003212;28;20071;-73
2022/03/30 03:25:17;;;;;;;53.15;28.88;;;;;;;;;;5007840;28;20465;-71
2022/03/30 03:27:43;;;;;;;54.13;27.60;;;;;;;;;;5006017;28;20033;-71
2022/03/30 03:30:09;;;;;;;51.83;26.67;;;;;;;;;;5004570;28;20068;-70
2022/03/30 03:32:36;;;;;;;51.97;27.40;;;;;;;;;;5011515;28;20037;-71
2022/03/30 03:35:03;;;;;;;46.55;25.02;;;;;;;;;;5015083;28;20488;-72
2022/03/30 03:37:29;;;;;;;47.30;24.52;;;;;;;;;;5001370;28;20038;-71
2022/03/30 03:39:55;;;;;;;47.55;24.95;;;;;;;;;;5007760;28;20044;-71
2022/03/30 03:42:21;;;;;;;43.13;22.80;;;;;;;;;;5006428;28;20502;-71
2022/03/30 03:44:47;;;;;;;46.65;23.80;;;;;;;;;;5004688;28;20030;-70
2022/03/30 03:47:13;;;;;;;44.13;24.05;;;;;;;;;;5007119;28;20045;-71
2022/03/30 03:49:40;;;;;;;43.80;23.30;;;;;;;;;;5009295;28;20029;-70
2022/03/30 03:52:07;;;;;;;46.42;22.50;;;;;;;;;;5005057;28;20117;-70
2022/03/30 03:54:33;;;;;;;44.55;23.88;;;;;;;;;;5007172;28;20026;-70
2022/03/30 03:56:59;;;;;;;42.08;23.95;;;;;;;;;;5001095;28;20069;-70
2022/03/30 03:59:25;;;;;;;46.00;22.77;;;;;;;;;;5007002;28;20087;-71
2022/03/30 04:01:52;;;;;;;36.78;22.67;;;;;;;;;;5003106;28;20037;-70
2022/03/30 04:04:18;;;;;;;41.58;23.10;;;;;;;;;;5011353;28;20117;-71
2022/03/30 04:06:44;;;;;;;36.53;21.13;;;;;;;;;;4999078;28;20033;-70
2022/03/30 04:09:10;;;;;;;49.50;23.70;;;;;;;;;;5013786;28;20104;-71
2022/03/30 04:11:36;;;;;;;40.47;23.17;;;;;;;;;;5012021;28;20411;-71
2022/03/30 04:14:03;;;;;;;44.75;22.88;;;;;;;;;;4996502;28;20169;-70
2022/03/30 04:16:29;;;;;;;38.47;21.42;;;;;;;;;;5012889;28;20077;-71
2022/03/30 04:18:56;;;;;;;48.65;25.00;;;;;;;;;;5009018;28;20251;-70
2022/03/30 04:21:22;;;;;;;41.47;23.40;;;;;;;;;;5013195;28;20060;-69
2022/03/30 04:23:48;;;;;;;41.38;23.35;;;;;;;;;;5005673;28;20026;-69
2022/03/30 04:26:14;;;;;;;41.80;22.27;;;;;;;;;;5009798;28;20057;-72
2022/03/30 04:28:40;;;;;;;44.42;25.08;;;;;;;;;;5016214;28;20027;-71
2022/03/30 04:31:13;;;;;;;46.92;23.60;;;;;;;;;;5008038;28;20034;-71
2022/03/30 04:33:40;;;;;;;44.75;24.58;;;;;;;;;;4998609;28;20064;-70
2022/03/30 04:36:06;;;;;;;47.15;23.75;;;;;;;;;;5005383;28;20045;-69
2022/03/30 04:38:33;;;;;;;48.65;24.85;;;;;;;;;;5008400;28;20027;-70
2022/03/30 04:40:59;;;;;;;44.30;24.55;;;;;;;;;;5000084;28;20052;-71
2022/03/30 04:43:25;;;;;;;44.30;24.63;;;;;;;;;;5001795;28;20034;-70
2022/03/30 04:45:51;;;;;;;43.65;24.38;;;;;;;;;;5002208;28;20042;-70
2022/03/30 04:48:17;;;;;;;46.05;24.55;;;;;;;;;;5006515;28;20030;-72
2022/03/30 04:50:43;;;;;;;45.33;22.80;;;;;;;;;;5003513;28;20392;-70
2022/03/30 04:53:10;;;;;;;50.22;24.20;;;;;;;;;;5007093;28;20026;-72
2022/03/30 04:55:36;;;;;;;45.28;24.75;;;;;;;;;;5003432;28;20042;-70
2022/03/30 04:58:03;;;;;;;48.03;25.02;;;;;;;;;;5005023;28;20073;-71
2022/03/30 05:00:29;;;;;;;47.80;24.65;;;;;;;;;;5008865;28;20526;-69
2022/03/30 05:02:55;;;;;;;45.85;24.88;;;;;;;;;;5007381;28;20507;-70
2022/03/30 05:05:21;;;;;;;43.40;24.60;;;;;;;;;;5000772;28;20138;-71
2022/03/30 05:07:47;;;;;;;44.75;24.08;;;;;;;;;;5004153;28;20374;-69
2022/03/30 05:10:14;;;;;;;47.42;23.70;;;;;;;;;;5013404;28;20085;-71
2022/03/30 05:12:41;;;;;;;44.45;26.17;;;;;;;;;;5003741;28;20038;-71
2022/03/30 05:15:09;;;;;;;46.92;23.77;;;;;;;;;;5004792;28;20054;-70
2022/03/30 05:17:36;;;;;;;44.38;23.98;;;;;;;;;;5010961;28;20029;-70
2022/03/30 05:20:02;;;;;;;46.72;24.80;;;;;;;;;;5005513;28;20034;-70
2022/03/30 05:22:28;;;;;;;46.72;24.70;;;;;;;;;;5007918;28;20033;-70
2022/03/30 05:24:55;;;;;;;46.92;24.70;;;;;;;;;;5005081;28;20014;-71
2022/03/30 05:27:21;;;;;;;45.10;22.55;;;;;;;;;;5007655;28;20487;-70
2022/03/30 05:29:47;;;;;;;46.80;24.00;;;;;;;;;;4997786;28;20519;-70
2022/03/30 05:32:14;;;;;;;46.38;24.92;;;;;;;;;;5005092;28;20054;-71
2022/03/30 05:34:40;;;;;;;48.05;24.85;;;;;;;;;;5002296;28;20072;-71
2022/03/30 05:37:06;;;;;;;44.97;23.95;;;;;;;;;;5002855;28;20034;-70
2022/03/30 05:39:34;;;;;;;45.42;24.27;;;;;;;;;;5014047;28;20095;-70
2022/03/30 05:42:00;;;;;;;46.05;23.70;;;;;;;;;;5018009;28;20033;-70
2022/03/30 05:44:26;;;;;;;43.95;24.65;;;;;;;;;;5005007;28;20037;-69
2022/03/30 05:46:52;;;;;;;43.88;24.20;;;;;;;;;;5002532;28;20064;-69
2022/03/30 05:49:18;;;;;;;49.58;24.80;;;;;;;;;;5002976;28;20105;-70
2022/03/30 05:51:45;;;;;;;46.28;22.88;;;;;;;;;;5005689;28;20045;-70
2022/03/30 05:54:12;;;;;;;47.17;24.85;;;;;;;;;;5000346;28;20033;-71
2022/03/30 05:59:23;;;;;;;46.13;23.70;;;;;;;;;;5006215;28;20080;-72
2022/03/30 06:01:49;;;;;;;44.17;23.23;;;;;;;;;;5005549;28;20169;-70
2022/03/30 06:04:15;;;;;;;45.55;24.02;;;;;;;;;;5011968;28;20022;-70
2022/03/30 06:06:41;;;;;;;48.15;25.38;;;;;;;;;;5004242;28;20137;-71
2022/03/30 06:09:07;;;;;;;49.85;25.27;;;;;;;;;;5004111;28;20029;-70
2022/03/30 06:11:33;;;;;;;43.15;24.20;;;;;;;;;;5010949;28;20495;-70
2022/03/30 06:14:00;;;;;;;44.90;24.55;;;;;;;;;;5017444;28;20029;-70
2022/03/30 06:16:27;;;;;;;45.88;25.23;;;;;;;;;;5008301;28;20727;-70
2022/03/30 06:18:53;;;;;;;44.08;24.83;;;;;;;;;;5008621;28;20041;-70
2022/03/30 06:21:19;;;;;;;51.03;24.67;;;;;;;;;;5000082;28;20062;-71
2022/03/30 06:23:46;;;;;;;54.47;26.38;;;;;;;;;;5010073;28;20030;-70
2022/03/30 06:26:12;;;;;;;52.53;27.13;;;;;;;;;;5001008;28;20084;-72
2022/03/30 06:28:38;;;;;;;53.45;26.33;;;;;;;;;;5016902;28;20113;-72
2022/03/30 06:31:04;;;;;;;46.97;24.77;;;;;;;;;;5005376;28;20065;-70
2022/03/30 06:33:30;;;;;;;50.58;27.42;;;;;;;;;;5015955;28;20091;-70
2022/03/30 06:35:56;;;;;;;51.03;26.50;;;;;;;;;;5009091;28;20029;-71
2022/03/30 06:38:23;;;;;;;51.35;26.30;;;;;;;;;;5011990;28;20057;-72
2022/03/30 06:40:49;;;;;;;47.75;26.25;;;;;;;;;;5005727;28;20030;-69
2022/03/30 06:43:15;;;;;;;53.72;28.15;;;;;;;;;;5002035;28;20080;-70
2022/03/30 06:45:43;;;;;;;54.28;29.13;;;;;;;;;;5003904;28;20041;-71
2022/03/30 06:48:11;;;;;;;51.42;26.00;;;;;;;;;;5008872;28;20049;-71
2022/03/30 06:50:37;;;;;;;54.22;28.92;;;;;;;;;;5007356;28;20113;-71
2022/03/30 06:53:05;;;;;;;53.33;27.00;;;;;;;;;;5010784;28;20089;-71
2022/03/30 06:55:31;;;;;;;51.40;26.77;;;;;;;;;;5010297;28;20057;-70
2022/03/30 06:57:57;;;;;;;59.90;29.80;;;;;;;;;;5002138;28;20033;-71
2022/03/30 07:00:23;;;;;;;56.53;28.42;;;;;;;;;;5000066;28;20308;-72
2022/03/30 07:02:49;;;;;;;56.17;27.70;;;;;;;;;;5001681;28;20129;-70
2022/03/30 07:05:15;;;;;;;48.92;24.65;;;;;;;;;;5006515;28;20022;-70
2022/03/30 07:10:27;;;;;;;50.95;27.80;;;;;;;;;;5008571;28;20112;-70
2022/03/30 07:12:53;;;;;;;49.20;26.25;;;;;;;;;;4998852;28;20132;-72
2022/03/30 07:15:20;;;;;;;50.75;26.58;;;;;;;;;;5004864;28;20041;-72
2022/03/30 07:17:50;;;;;;;53.13;25.58;;;;;;;;;;5004009;28;20465;-71
2022/03/30 07:20:16;;;;;;;48.97;25.08;;;;;;;;;;5007909;28;20095;-71
2022/03/30 07:22:43;;;;;;;48.20;25.33;;;;;;;;;;5000211;28;20029;-71
2022/03/30 07:25:10;;;;;;;53.72;24.33;;;;;;;;;;5018138;28;20069;-69
2022/03/30 07:27:40;;;;;;;48.92;25.45;;;;;;;;;;5001040;28;20030;-70
2022/03/30 07:30:07;;;;;;;51.03;27.33;;;;;;;;;;5004300;28;20431;-72
2022/03/30 07:32:34;;;;;;;51.78;25.10;;;;;;;;;;5003202;28;20101;-71
2022/03/30 07:35:00;;;;;;;42.72;22.88;;;;;;;;;;5004614;28;20033;-70
2022/03/30 07:37:26;;;;;;;48.90;24.00;;;;;;;;;;5003033;28;20504;-72
2022/03/30 07:39:52;;;;;;;45.40;25.85;;;;;;;;;;5000579;28;20038;-70
2022/03/30 07:42:18;;;;;;;49.22;25.23;;;;;;;;;;5002487;28;20112;-71
2022/03/30 07:44:44;;;;;;;46.03;23.92;;;;;;;;;;4998953;28;20019;-71
2022/03/30 07:47:10;;;;;;;45.85;25.25;;;;;;;;;;5002512;28;20116;-71
2022/03/30 07:49:37;;;;;;;46.80;25.55;;;;;;;;;;5001564;28;20034;-71
2022/03/30 07:52:04;;;;;;;44.88;24.20;;;;;;;;;;5004613;28;20030;-72
2022/03/30 07:54:30;;;;;;;42.65;23.35;;;;;;;;;;5008193;28;20047;-70
2022/03/30 07:56:57;;;;;;;51.05;25.98;;;;;;;;;;5000275;28;20077;-72
2022/03/30 07:59:23;;;;;;;43.70;23.88;;;;;;;;;;4999760;28;20570;-70
2022/03/30 08:01:49;;;;;;;51.22;26.75;;;;;;;;;;4995457;28;20034;-72
2022/03/30 08:04:15;;;;;;;49.78;27.10;;;;;;;;;;5002706;28;20022;-71
2022/03/30 08:06:41;;;;;;;49.13;25.20;;;;;;;;;;5004534;28;20030;-72
2022/03/30 08:09:07;;;;;;;49.25;25.58;;;;;;;;;;4997343;28;20026;-71
2022/03/30 08:11:34;;;;;;;45.28;24.75;;;;;;;;;;5018432;28;20030;-71
2022/03/30 08:14:00;;;;;;;48.80;26.73;;;;;;;;;;5015076;28;20095;-70
2022/03/30 08:16:27;;;;;;;55.53;25.83;;;;;;;;;;4995758;28;20285;-70
2022/03/30 08:18:53;;;;;;;48.70;25.05;;;;;;;;;;5003296;28;20483;-70
2022/03/30 08:24:04;;;;;;;51.17;24.53;;;;;;;;;;4997084;28;20161;-70
2022/03/30 08:26:31;;;;;;;39.13;21.27;;;;;;;;;;5003584;28;20030;-69
2022/03/30 08:28:57;;;;;;;41.33;21.85;;;;;;;;;;5008253;28;20030;-71
2022/03/30 08:31:23;;;;;;;38.45;21.73;;;;;;;;;;5000647;28;20041;-70
2022/03/30 08:33:49;;;;;;;39.70;19.38;;;;;;;;;;4998261;28;20022;-72
2022/03/30 08:36:16;;;;;;;30.73;14.48;;;;;;;;;;5000052;28;20030;-71
2022/03/30 08:38:42;;;;;;;30.33;12.65;;;;;;;;;;5002653;28;20026;-71
2022/03/30 08:41:09;;;;;;;30.25;12.43;;;;;;;;;;5002002;28;20034;-71
2022/03/30 08:43:35;;;;;;;23.33;11.50;;;;;;;;;;5006925;28;20086;-70
2022/03/30 08:46:02;;;;;;;20.92;10.77;;;;;;;;;;4994805;28;20022;-71
2022/03/30 08:48:29;;;;;;;16.45;8.75;;;;;;;;;;5006550;28;20093;-70
2022/03/30 08:50:56;;;;;;;17.77;9.10;;;;;;;;;;5004259;28;20030;-70
2022/03/30 08:53:25;;;;;;;17.23;9.93;;;;;;;;;;5019009;28;20044;-71
2022/03/30 08:55:51;;;;;;;15.55;9.15;;;;;;;;;;5005896;28;20026;-68
2022/03/30 08:58:17;;;;;;;17.05;9.20;;;;;;;;;;5000315;28;20463;-71
2022/03/30 09:00:43;;;;;;;16.33;9.57;;;;;;;;;;4998225;28;20043;-72
2022/03/30 09:03:10;;;;;;;34.22;10.65;;;;;;;;;;5005446;28;20384;-71
2022/03/30 09:05:40;;;;;;;18.17;7.90;;;;;;;;;;5009475;28;20030;-72
2022/03/30 09:08:21;;;;;;;15.80;7.50;;;;;;;;;;5011908;28;20026;-70
2022/03/30 09:10:48;;;;;;;20.65;7.75;;;;;;;;;;5008262;28;20026;-71
2022/03/30 09:13:17;;;;;;;15.50;7.57;;;;;;;;;;5010925;28;20434;-70
2022/03/30 09:15:44;;;;;;;12.82;7.45;;;;;;;;;;5006196;28;20053;-69
2022/03/30 09:18:11;;;;;;;14.77;6.78;;;;;;;;;;5005433;28;20026;-72
2022/03/30 09:20:39;;;;;;;16.23;7.43;;;;;;;;;;5006519;28;20031;-70
2022/03/30 09:23:07;;;;;;;13.05;6.75;;;;;;;;;;5001886;28;20034;-69
2022/03/30 09:25:34;;;;;;;12.73;6.80;;;;;;;;;;5007004;28;20030;-70
2022/03/30 09:28:01;;;;;;;12.95;6.75;;;;;;;;;;5004712;28;20027;-71
2022/03/30 09:30:28;;;;;;;13.10;8.35;;;;;;;;;;5005077;28;20030;-70
2022/03/30 09:32:56;;;;;;;11.38;6.95;;;;;;;;;;5002287;28;20105;-70
2022/03/30 09:35:40;;;;;;;18.00;7.13;;;;;;;;;;5003110;28;20027;-71
2022/03/30 09:38:17;;;;;;;12.88;7.85;;;;;;;;;;5002523;28;20034;-70
2022/03/30 09:40:47;;;;;;;13.57;6.43;;;;;;;;;;4995715;28;20034;-70
2022/03/30 09:43:14;;;;;;;11.65;7.20;;;;;;;;;;5011277;28;20040;-71
2022/03/30 09:45:41;;;;;;;12.73;6.68;;;;;;;;;;5001762;28;20520;-70
2022/03/30 09:48:26;;;;;;;12.65;6.70;;;;;;;;;;5005488;28;20093;-68
2022/03/30 09:50:54;;;;;;;11.05;7.18;;;;;;;;;;5005397;28;20030;-69
2022/03/30 09:53:22;;;;;;;17.25;6.78;;;;;;;;;;5007749;28;20019;-70
2022/03/30 09:56:11;;;;;;;10.88;6.60;;;;;;;;;;5002037;28;20125;-71
2022/03/30 09:58:38;;;;;;;12.25;6.07;;;;;;;;;;5003227;28;20049;-71
2022/03/30 10:01:10;;;;;;;12.88;7.28;;;;;;;;;;4993849;28;20034;-72
2022/03/30 10:03:43;;;;;;;12.85;7.07;;;;;;;;;;5008885;28;20061;-72
2022/03/30 10:06:11;;;;;;;13.55;6.28;;;;;;;;;;5020853;28;20346;-71
2022/03/30 10:08:39;;;;;;;14.02;6.15;;;;;;;;;;4996854;28;20080;-71
2022/03/30 10:11:05;;;;;;;14.35;6.63;;;;;;;;;;5008455;28;20026;-70
2022/03/30 10:13:31;;;;;;;10.75;5.78;;;;;;;;;;5014750;28;20033;-71
2022/03/30 10:15:58;;;;;;;10.90;5.45;;;;;;;;;;5007227;28;20057;-71
2022/03/30 10:18:25;;;;;;;12.40;5.97;;;;;;;;;;5002516;28;20022;-72
2022/03/30 10:21:02;;;;;;;13.10;5.68;;;;;;;;;;5000954;28;20034;-70
2022/03/30 10:23:49;;;;;;;11.88;6.50;;;;;;;;;;4997577;28;20037;-72
2022/03/30 10:26:38;;;;;;;10.13;5.03;;;;;;;;;;4997880;28;20022;-70
2022/03/30 10:29:09;;;;;;;8.35;4.60;;;;;;;;;;5005433;28;20021;-70
2022/03/30 10:31:35;;;;;;;8.93;4.45;;;;;;;;;;5001646;28;20041;-70
2022/03/30 10:34:20;;;;;;;9.55;4.57;;;;;;;;;;5011531;28;20029;-73
2022/03/30 10:37:00;;;;;;;9.60;4.55;;;;;;;;;;4996664;28;20113;-71
2022/03/30 10:39:27;;;;;;;12.25;5.40;;;;;;;;;;5001541;28;20403;-72
2022/03/30 10:41:54;;;;;;;8.98;5.50;;;;;;;;;;5001644;28;20034;-71
2022/03/30 10:44:36;;;;;;;10.82;5.32;;;;;;;;;;5001606;28;20068;-70
2022/03/30 10:47:20;;;;;;;18.02;6.13;;;;;;;;;;5001926;28;20020;-70
2022/03/30 10:49:48;;;;;;;12.63;5.85;;;;;;;;;;4998695;28;20072;-70
2022/03/30 10:52:34;;;;;;;8.38;4.57;;;;;;;;;;5002745;28;20073;-69
2022/03/30 10:55:12;;;;;;;10.98;4.80;;;;;;;;;;5004338;28;20034;-73
2022/03/30 10:57:44;;;;;;;13.88;4.65;;;;;;;;;;5006402;28;20038;-73
2022/03/30 11:00:24;;;;;;;8.45;4.30;;;;;;;;;;5012096;28;20057;-70
2022/03/30 11:02:51;;;;;;;20.63;4.90;;;;;;;;;;5007506;28;20030;-71
2022/03/30 11:05:17;;;;;;;10.55;3.90;;;;;;;;;;5005410;28;20031;-71
2022/03/30 11:07:44;;;;;;;9.35;3.95;;;;;;;;;;5007290;28;20350;-70
2022/03/30 11:10:14;;;;;;;5.78;3.58;;;;;;;;;;5004087;28;20026;-71
2022/03/30 11:12:59;;;;;;;8.60;4.78;;;;;;;;;;5008938;28;20112;-70
2022/03/30 11:15:25;;;;;;;6.68;4.00;;;;;;;;;;5001644;28;20046;-71
2022/03/30 11:17:51;;;;;;;9.13;4.50;;;;;;;;;;5000997;28;20046;-70
2022/03/30 11:20:19;;;;;;;9.25;4.60;;;;;;;;;;5002328;28;20029;-70
2022/03/30 11:22:47;;;;;;;11.02;4.20;;;;;;;;;;5004670;28;20025;-71
2022/03/30 11:25:23;;;;;;;11.23;4.97;;;;;;;;;;5007518;28;20025;-71
2022/03/30 11:28:12;;;;;;;7.20;3.58;;;;;;;;;;5004016;28;20028;-73
2022/03/30 11:30:39;;;;;;;10.38;5.88;;;;;;;;;;5013520;28;20081;-71
2022/03/30 11:33:11;;;;;;;10.93;5.30;;;;;;;;;;5007758;28;20523;-71
2022/03/30 11:35:39;;;;;;;8.80;4.00;;;;;;;;;;5000829;28;20076;-70
2022/03/30 11:38:11;;;;;;;10.70;3.75;;;;;;;;;;5002920;28;20021;-69
2022/03/30 11:40:39;;;;;;;7.85;3.75;;;;;;;;;;5000002;28;20060;-71
2022/03/30 11:43:05;;;;;;;8.68;3.45;;;;;;;;;;5002226;28;20037;-70
2022/03/30 11:45:32;;;;;;;10.57;3.25;;;;;;;;;;4997622;28;20022;-69
2022/03/30 11:48:00;;;;;;;10.55;3.30;;;;;;;;;;4996458;28;20030;-70
2022/03/30 11:50:34;;;;;;;11.65;3.45;;;;;;;;;;4996752;28;20745;-71
2022/03/30 11:53:07;;;;;;;11.20;3.78;;;;;;;;;;4997553;28;20034;-71
2022/03/30 11:55:35;;;;;;;8.02;3.65;;;;;;;;;;5000117;28;20458;-70
2022/03/30 11:58:01;;;;;;;6.00;3.13;;;;;;;;;;4998065;28;20030;-70
2022/03/30 12:00:28;;;;;;;5.95;3.15;;;;;;;;;;4999256;28;20104;-69
2022/03/30 12:02:55;;;;;;;10.52;4.32;;;;;;;;;;5000343;28;20089;-69
2022/03/30 12:05:22;;;;;;;4.95;2.50;;;;;;;;;;4996505;28;20119;-70
2022/03/30 12:07:52;;;;;;;6.25;2.75;;;;;;;;;;5000615;28;20036;-70
2022/03/30 12:10:18;;;;;;;6.32;2.42;;;;;;;;;;4996561;28;20029;-72
2022/03/30 12:12:45;;;;;;;5.20;3.22;;;;;;;;;;4998794;28;20941;-70
2022/03/30 12:15:15;;;;;;;6.35;2.83;;;;;;;;;;4996283;28;20105;-71
2022/03/30 12:17:42;;;;;;;3.85;2.40;;;;;;;;;;4998134;28;20040;-70
2022/03/30 12:20:09;;;;;;;7.45;2.38;;;;;;;;;;4995257;28;20038;-70
2022/03/30 12:22:38;;;;;;;7.93;2.83;;;;;;;;;;5001116;28;20046;-69
2022/03/30 12:25:17;;;;;;;3.67;2.20;;;;;;;;;;4999401;28;20025;-71
2022/03/30 12:27:43;;;;;;;4.35;2.83;;;;;;;;;;4999605;28;20103;-69
2022/03/30 12:30:09;;;;;;;4.78;2.95;;;;;;;;;;4999796;28;20362;-70
2022/03/30 12:32:36;;;;;;;6.15;2.60;;;;;;;;;;4997513;28;20031;-69
2022/03/30 12:35:08;;;;;;;6.10;3.13;;;;;;;;;;5000878;28;20307;-69
2022/03/30 12:37:34;;;;;;;4.47;2.78;;;;;;;;;;4996433;28;20026;-69
2022/03/30 12:40:11;;;;;;;7.50;2.72;;;;;;;;;;4995398;28;20030;-70
2022/03/30 12:42:37;;;;;;;6.50;2.90;;;;;;;;;;4998550;28;20030;-70
2022/03/30 12:45:10;;;;;;;6.05;2.97;;;;;;;;;;4998269;28;20030;-71
2022/03/30 12:47:38;;;;;;;6.55;2.47;;;;;;;;;;4998019;28;20048;-70
2022/03/30 12:50:07;;;;;;;3.80;2.70;;;;;;;;;;5001026;28;20125;-69
2022/03/30 12:52:40;;;;;;;4.15;2.72;;;;;;;;;;4997600;28;20050;-68
2022/03/30 12:55:32;;;;;;;3.97;2.63;;;;;;;;;;5017059;28;20033;-69
2022/03/30 12:58:01;;;;;;;7.25;3.03;;;;;;;;;;4994291;28;20030;-70
2022/03/30 13:00:35;;;;;;;6.53;2.85;;;;;;;;;;4996995;28;20364;-70
2022/03/30 13:03:10;;;;;;;5.70;2.58;;;;;;;;;;5014340;28;20030;-71
2022/03/30 13:05:37;;;;;;;4.70;2.72;;;;;;;;;;4998202;28;20064;-70
2022/03/30 13:08:13;;;;;;;7.45;2.78;;;;;;;;;;4999692;28;20038;-72
2022/03/30 13:10:49;;;;;;;4.63;2.97;;;;;;;;;;5000187;28;20133;-70
2022/03/30 13:13:16;;;;;;;3.95;2.22;;;;;;;;;;5003111;28;20131;-70
2022/03/30 13:15:42;;;;;;;5.72;3.00;;;;;;;;;;4999178;28;20058;-72
2022/03/30 13:18:10;;;;;;;6.82;2.60;;;;;;;;;;5003011;28;20069;-71
2022/03/30 13:20:37;;;;;;;2.90;2.30;;;;;;;;;;4996944;28;20117;-71
2022/03/30 13:23:08;;;;;;;7.82;2.53;;;;;;;;;;4998364;28;20026;-72
2022/03/30 13:25:41;;;;;;;6.57;4.03;;;;;;;;;;4998335;28;20028;-70
2022/03/30 13:28:08;;;;;;;3.88;2.45;;;;;;;;;;4997109;28;20120;-68
2022/03/30 13:30:35;;;;;;;7.60;2.35;;;;;;;;;;5000989;28;20036;-70
2022/03/30 13:33:01;;;;;;;3.75;2.38;;;;;;;;;;5006050;28;20030;-68
2022/03/30 13:35:28;;;;;;;4.93;2.70;;;;;;;;;;5006689;28;20040;-68
2022/03/30 13:37:54;;;;;;;5.70;2.60;;;;;;;;;;5008216;28;20141;-67
2022/03/30 13:40:21;;;;;;;3.47;2.03;;;;;;;;;;5009369;28;20038;-68
2022/03/30 13:42:47;;;;;;;5.28;2.40;;;;;;;;;;5007139;28;20022;-69
2022/03/30 13:45:14;;;;;;;6.05;3.13;;;;;;;;;;4996481;28;20036;-67
2022/03/30 13:47:41;;;;;;;5.13;2.20;;;;;;;;;;4996572;28;20018;-68
2022/03/30 13:50:08;;;;;;;8.88;3.17;;;;;;;;;;4998874;28;20026;-67
2022/03/30 13:52:34;;;;;;;6.45;2.40;;;;;;;;;;4999139;28;20065;-71
2022/03/30 13:55:00;;;;;;;3.20;2.10;;;;;;;;;;4996550;28;20598;-69
2022/03/30 13:57:26;;;;;;;3.70;2.03;;;;;;;;;;4996568;28;20036;-69
2022/03/30 13:59:52;;;;;;;5.25;2.65;;;;;;;;;;4996277;28;20105;-70
2022/03/30 14:02:18;;;;;;;4.05;2.08;;;;;;;;;;4996878;28;20060;-71
2022/03/30 14:04:46;;;;;;;7.28;2.40;;;;;;;;;;4995582;28;20597;-71
2022/03/30 14:07:13;;;;;;;3.70;2.30;;;;;;;;;;4996936;28;20040;-72
2022/03/30 14:09:39;;;;;;;7.28;2.05;;;;;;;;;;4998483;28;20545;-71
2022/03/30 14:12:06;;;;;;;6.00;2.53;;;;;;;;;;4998008;28;20048;-71
2022/03/30 14:14:34;;;;;;;4.93;2.30;;;;;;;;;;5000642;28;20032;-72
2022/03/30 14:17:02;;;;;;;5.05;1.85;;;;;;;;;;4996596;28;20041;-70
2022/03/30 14:19:28;;;;;;;7.15;2.63;;;;;;;;;;4998918;28;20030;-69
2022/03/30 14:21:56;;;;;;;5.25;3.05;;;;;;;;;;4996462;28;20165;-70
2022/03/30 14:24:23;;;;;;;5.47;2.17;;;;;;;;;;4997823;28;20117;-69
2022/03/30 14:26:50;;;;;;;4.15;1.77;;;;;;;;;;4998929;28;20143;-68
2022/03/30 14:29:16;;;;;;;4.88;2.40;;;;;;;;;;4995482;28;20030;-69
2022/03/30 14:31:42;;;;;;;6.82;2.25;;;;;;;;;;4995867;28;20068;-69
2022/03/30 14:34:08;;;;;;;3.67;2.05;;;;;;;;;;4998368;28;20057;-70
2022/03/30 14:36:34;;;;;;;4.68;2.40;;;;;;;;;;5000225;28;20109;-72
2022/03/30 14:39:00;;;;;;;6.50;2.28;;;;;;;;;;4999881;28;20080;-70
2022/03/30 14:41:27;;;;;;;3.97;2.10;;;;;;;;;;4990129;28;20169;-70